PWSweather.com
Personal Weather Stations
Station Observations
KIDNAMPA57
Canyon County Idaho, Nampa, ID 83687

Canyon County IdahoNampa, ID 83687

Lat: 43.587235, Lon: -116.49831979999999

Elevation: 2615

Station Type: Davis Vantage Pro 2

www.rockinglweather.com

High Low Average
Temperature 46.4°F8.0°C 26.2°F-3.2°C 35.3°F1.8°C
Dew Point 34.0°F1.1°C 24.5°F-4.2°C 28.8°F-1.8°C
Winds 13.0 mph 20.9 kmh Calm Calm 3.0 mph SSW4.8 kmh SSW
Wind Gusts 15.0 mph24.1 kmh -- 6.0 mph9.7 kmh
Humidity 94% 54% 78%
Pressure 30.39 in1029.1 mb 30.19 in1022.4 mb -
Precipitation 0.00 in0.0 mm - -
Hour Temp Dew Point Humidity Winds Wind Gusts Pressure Precip Precip Rate Daily Precip Total
12:00 AM 32.5°F0.3°C 29.9°F-1.2°C 90% Calm Calm 5.0 mph8.0 kmh 30.19 in1022.4 mb 0.00 in0.0 mm 0.00 in0.0 mm 0.00 in0.0 mm
12:05 AM 32.1°F0.1°C 29.5°F-1.4°C 90% Calm Calm 3.0 mph4.8 kmh 30.19 in1022.4 mb 0.00 in0.0 mm 0.00 in0.0 mm 0.00 in0.0 mm
12:10 AM 31.7°F-0.2°C 29.1°F-1.6°C 90% 1.0 mph N1.6 kmh N 3.0 mph4.8 kmh 30.19 in1022.4 mb 0.00 in0.0 mm 0.00 in0.0 mm 0.00 in0.0 mm
12:15 AM 31.0°F-0.6°C 28.7°F-1.8°C 91% Calm Calm 3.0 mph4.8 kmh 30.19 in1022.4 mb 0.00 in0.0 mm 0.00 in0.0 mm 0.00 in0.0 mm
12:20 AM 31.1°F-0.5°C 29.1°F-1.6°C 92% Calm Calm -- 30.19 in1022.4 mb 0.00 in0.0 mm 0.00 in0.0 mm 0.00 in0.0 mm
12:25 AM 31.3°F-0.4°C 29.3°F-1.5°C 92% Calm Calm -- 30.19 in1022.4 mb 0.00 in0.0 mm 0.00 in0.0 mm 0.00 in0.0 mm
12:30 AM 31.6°F-0.2°C 29.6°F-1.3°C 92% 3.0 mph N4.8 kmh N 4.0 mph6.4 kmh 30.19 in1022.4 mb 0.00 in0.0 mm 0.00 in0.0 mm 0.00 in0.0 mm
12:35 AM 31.8°F-0.1°C 30.0°F-1.1°C 93% 1.0 mph N1.6 kmh N 3.0 mph4.8 kmh 30.19 in1022.4 mb 0.00 in0.0 mm 0.00 in0.0 mm 0.00 in0.0 mm
12:40 AM 32.0°F0.0°C 30.2°F-1.0°C 93% 3.0 mph N4.8 kmh N 3.0 mph4.8 kmh 30.19 in1022.4 mb 0.00 in0.0 mm 0.00 in0.0 mm 0.00 in0.0 mm
12:45 AM 31.7°F-0.2°C 29.7°F-1.3°C 92% 3.0 mph N4.8 kmh N 3.0 mph4.8 kmh 30.19 in1022.4 mb 0.00 in0.0 mm 0.00 in0.0 mm 0.00 in0.0 mm
12:50 AM 31.8°F-0.1°C 30.0°F-1.1°C 93% 2.0 mph N3.2 kmh N 3.0 mph4.8 kmh 30.20 in1022.7 mb 0.00 in0.0 mm 0.00 in0.0 mm 0.00 in0.0 mm
12:55 AM 31.5°F-0.3°C 29.5°F-1.4°C 92% 1.0 mph N1.6 kmh N 3.0 mph4.8 kmh 30.20 in1022.7 mb 0.00 in0.0 mm 0.00 in0.0 mm 0.00 in0.0 mm
01:00 AM 31.1°F-0.5°C 29.1°F-1.6°C 92% Calm Calm 3.0 mph4.8 kmh 30.20 in1022.7 mb 0.00 in0.0 mm 0.00 in0.0 mm 0.00 in0.0 mm
01:05 AM 30.9°F-0.6°C 29.1°F-1.6°C 93% Calm Calm -- 30.21 in1023.0 mb 0.00 in0.0 mm 0.00 in0.0 mm 0.00 in0.0 mm
01:10 AM 30.7°F-0.7°C 28.9°F-1.7°C 93% Calm Calm -- 30.22 in1023.4 mb 0.00 in0.0 mm 0.00 in0.0 mm 0.00 in0.0 mm
01:15 AM 30.6°F-0.8°C 28.8°F-1.8°C 93% Calm Calm -- 30.22 in1023.4 mb 0.00 in0.0 mm 0.00 in0.0 mm 0.00 in0.0 mm
01:20 AM 30.8°F-0.7°C 29.0°F-1.7°C 93% Calm Calm -- 30.21 in1023.0 mb 0.00 in0.0 mm 0.00 in0.0 mm 0.00 in0.0 mm
01:25 AM 30.6°F-0.8°C 28.8°F-1.8°C 93% Calm Calm -- 30.22 in1023.4 mb 0.00 in0.0 mm 0.00 in0.0 mm 0.00 in0.0 mm
01:30 AM 30.3°F-0.9°C 28.5°F-1.9°C 93% Calm Calm -- 30.22 in1023.4 mb 0.00 in0.0 mm 0.00 in0.0 mm 0.00 in0.0 mm
01:35 AM 30.1°F-1.1°C 28.3°F-2.1°C 93% Calm Calm 3.0 mph4.8 kmh 30.22 in1023.4 mb 0.00 in0.0 mm 0.00 in0.0 mm 0.00 in0.0 mm
01:40 AM 29.9°F-1.2°C 28.1°F-2.2°C 93% 3.0 mph N4.8 kmh N 3.0 mph4.8 kmh 30.22 in1023.4 mb 0.00 in0.0 mm 0.00 in0.0 mm 0.00 in0.0 mm
01:45 AM 30.4°F-0.9°C 28.9°F-1.7°C 94% 2.0 mph N3.2 kmh N 4.0 mph6.4 kmh 30.22 in1023.4 mb 0.00 in0.0 mm 0.00 in0.0 mm 0.00 in0.0 mm
01:50 AM 30.7°F-0.7°C 29.2°F-1.6°C 94% 1.0 mph N1.6 kmh N 3.0 mph4.8 kmh 30.22 in1023.4 mb 0.00 in0.0 mm 0.00 in0.0 mm 0.00 in0.0 mm
01:55 AM 30.7°F-0.7°C 29.2°F-1.6°C 94% 2.0 mph N3.2 kmh N 3.0 mph4.8 kmh 30.22 in1023.4 mb 0.00 in0.0 mm 0.00 in0.0 mm 0.00 in0.0 mm
02:00 AM 30.9°F-0.6°C 29.4°F-1.4°C 94% 1.0 mph W1.6 kmh W 5.0 mph8.0 kmh 30.23 in1023.7 mb 0.00 in0.0 mm 0.00 in0.0 mm 0.00 in0.0 mm
02:05 AM 31.2°F-0.4°C 29.7°F-1.3°C 94% 2.0 mph W3.2 kmh W 4.0 mph6.4 kmh 30.22 in1023.4 mb 0.00 in0.0 mm 0.00 in0.0 mm 0.00 in0.0 mm
02:10 AM 31.3°F-0.4°C 29.8°F-1.2°C 94% 2.0 mph W3.2 kmh W 5.0 mph8.0 kmh 30.23 in1023.7 mb 0.00 in0.0 mm 0.00 in0.0 mm 0.00 in0.0 mm
02:15 AM 31.5°F-0.3°C 30.0°F-1.1°C 94% 5.0 mph W8.0 kmh W 5.0 mph8.0 kmh 30.23 in1023.7 mb 0.00 in0.0 mm 0.00 in0.0 mm 0.00 in0.0 mm
02:20 AM 31.7°F-0.2°C 30.2°F-1.0°C 94% 3.0 mph W4.8 kmh W 4.0 mph6.4 kmh 30.23 in1023.7 mb 0.00 in0.0 mm 0.00 in0.0 mm 0.00 in0.0 mm
02:25 AM 31.6°F-0.2°C 30.1°F-1.1°C 94% 3.0 mph W4.8 kmh W 5.0 mph8.0 kmh 30.23 in1023.7 mb 0.00 in0.0 mm 0.00 in0.0 mm 0.00 in0.0 mm
02:30 AM 31.7°F-0.2°C 30.2°F-1.0°C 94% 3.0 mph W4.8 kmh W 6.0 mph9.7 kmh 30.23 in1023.7 mb 0.00 in0.0 mm 0.00 in0.0 mm 0.00 in0.0 mm
02:35 AM 31.8°F-0.1°C 30.3°F-0.9°C 94% 2.0 mph W3.2 kmh W 5.0 mph8.0 kmh 30.23 in1023.7 mb 0.00 in0.0 mm 0.00 in0.0 mm 0.00 in0.0 mm
02:40 AM 31.8°F-0.1°C 30.3°F-0.9°C 94% 3.0 mph W4.8 kmh W 5.0 mph8.0 kmh 30.23 in1023.7 mb 0.00 in0.0 mm 0.00 in0.0 mm 0.00 in0.0 mm
02:45 AM 31.8°F-0.1°C 30.3°F-0.9°C 94% 3.0 mph NW4.8 kmh NW 5.0 mph8.0 kmh 30.24 in1024.0 mb 0.00 in0.0 mm 0.00 in0.0 mm 0.00 in0.0 mm
02:50 AM 31.6°F-0.2°C 30.1°F-1.1°C 94% 4.0 mph NW6.4 kmh NW 4.0 mph6.4 kmh 30.24 in1024.0 mb 0.00 in0.0 mm 0.00 in0.0 mm 0.00 in0.0 mm
02:55 AM 31.5°F-0.3°C 30.0°F-1.1°C 94% 3.0 mph WNW4.8 kmh WNW 5.0 mph8.0 kmh 30.24 in1024.0 mb 0.00 in0.0 mm 0.00 in0.0 mm 0.00 in0.0 mm
03:00 AM 31.4°F-0.3°C 29.9°F-1.2°C 94% 2.0 mph W3.2 kmh W 6.0 mph9.7 kmh 30.24 in1024.0 mb 0.00 in0.0 mm 0.00 in0.0 mm 0.00 in0.0 mm
03:05 AM 31.2°F-0.4°C 29.4°F-1.4°C 93% 3.0 mph W4.8 kmh W 5.0 mph8.0 kmh 30.24 in1024.0 mb 0.00 in0.0 mm 0.00 in0.0 mm 0.00 in0.0 mm
03:10 AM 31.1°F-0.5°C 29.3°F-1.5°C 93% 3.0 mph W4.8 kmh W 7.0 mph11.3 kmh 30.25 in1024.4 mb 0.00 in0.0 mm 0.00 in0.0 mm 0.00 in0.0 mm
03:15 AM 31.1°F-0.5°C 29.6°F-1.3°C 94% 6.0 mph WSW9.7 kmh WSW 8.0 mph12.9 kmh 30.25 in1024.4 mb 0.00 in0.0 mm 0.00 in0.0 mm 0.00 in0.0 mm
03:20 AM 31.2°F-0.4°C 29.7°F-1.3°C 94% 4.0 mph W6.4 kmh W 8.0 mph12.9 kmh 30.25 in1024.4 mb 0.00 in0.0 mm 0.00 in0.0 mm 0.00 in0.0 mm
03:25 AM 31.4°F-0.3°C 29.9°F-1.2°C 94% 4.0 mph WNW6.4 kmh WNW 8.0 mph12.9 kmh 30.25 in1024.4 mb 0.00 in0.0 mm 0.00 in0.0 mm 0.00 in0.0 mm
03:30 AM 31.4°F-0.3°C 29.6°F-1.3°C 93% 4.0 mph WNW6.4 kmh WNW 8.0 mph12.9 kmh 30.26 in1024.7 mb 0.00 in0.0 mm 0.00 in0.0 mm 0.00 in0.0 mm
03:35 AM 31.4°F-0.3°C 29.6°F-1.3°C 93% 5.0 mph WNW8.0 kmh WNW 6.0 mph9.7 kmh 30.26 in1024.7 mb 0.00 in0.0 mm 0.00 in0.0 mm 0.00 in0.0 mm
03:40 AM 31.5°F-0.3°C 29.7°F-1.3°C 93% 2.0 mph WNW3.2 kmh WNW 7.0 mph11.3 kmh 30.26 in1024.7 mb 0.00 in0.0 mm 0.00 in0.0 mm 0.00 in0.0 mm
03:45 AM 31.4°F-0.3°C 29.6°F-1.3°C 93% 3.0 mph W4.8 kmh W 7.0 mph11.3 kmh 30.26 in1024.7 mb 0.00 in0.0 mm 0.00 in0.0 mm 0.00 in0.0 mm
03:50 AM 31.0°F-0.6°C 29.0°F-1.7°C 92% 3.0 mph W4.8 kmh W 5.0 mph8.0 kmh 30.26 in1024.7 mb 0.00 in0.0 mm 0.00 in0.0 mm 0.00 in0.0 mm
03:55 AM 30.8°F-0.7°C 29.0°F-1.7°C 93% 2.0 mph W3.2 kmh W 5.0 mph8.0 kmh 30.26 in1024.7 mb 0.00 in0.0 mm 0.00 in0.0 mm 0.00 in0.0 mm
04:00 AM 30.5°F-0.8°C 28.7°F-1.8°C 93% 3.0 mph W4.8 kmh W 5.0 mph8.0 kmh 30.26 in1024.7 mb 0.00 in0.0 mm 0.00 in0.0 mm 0.00 in0.0 mm
04:05 AM 30.4°F-0.9°C 28.6°F-1.9°C 93% 4.0 mph W6.4 kmh W 5.0 mph8.0 kmh 30.26 in1024.7 mb 0.00 in0.0 mm 0.00 in0.0 mm 0.00 in0.0 mm
04:10 AM 30.2°F-1.0°C 28.4°F-2.0°C 93% 3.0 mph W4.8 kmh W 5.0 mph8.0 kmh 30.26 in1024.7 mb 0.00 in0.0 mm 0.00 in0.0 mm 0.00 in0.0 mm
04:15 AM 29.9°F-1.2°C 27.9°F-2.3°C 92% Calm Calm 5.0 mph8.0 kmh 30.26 in1024.7 mb 0.00 in0.0 mm 0.00 in0.0 mm 0.00 in0.0 mm
04:20 AM 29.8°F-1.2°C 28.0°F-2.2°C 93% 2.0 mph W3.2 kmh W 3.0 mph4.8 kmh 30.26 in1024.7 mb 0.00 in0.0 mm 0.00 in0.0 mm 0.00 in0.0 mm
04:25 AM 29.7°F-1.3°C 27.9°F-2.3°C 93% 3.0 mph W4.8 kmh W 4.0 mph6.4 kmh 30.26 in1024.7 mb 0.00 in0.0 mm 0.00 in0.0 mm 0.00 in0.0 mm
04:30 AM 29.6°F-1.3°C 27.8°F-2.3°C 93% 3.0 mph W4.8 kmh W 4.0 mph6.4 kmh 30.26 in1024.7 mb 0.00 in0.0 mm 0.00 in0.0 mm 0.00 in0.0 mm
04:35 AM 29.8°F-1.2°C 28.0°F-2.2°C 93% 3.0 mph W4.8 kmh W 4.0 mph6.4 kmh 30.27 in1025.1 mb 0.00 in0.0 mm 0.00 in0.0 mm 0.00 in0.0 mm
04:40 AM 29.8°F-1.2°C 28.0°F-2.2°C 93% 2.0 mph W3.2 kmh W 4.0 mph6.4 kmh 30.27 in1025.1 mb 0.00 in0.0 mm 0.00 in0.0 mm 0.00 in0.0 mm
04:45 AM 29.4°F-1.4°C 27.6°F-2.4°C 93% 2.0 mph W3.2 kmh W 4.0 mph6.4 kmh 30.27 in1025.1 mb 0.00 in0.0 mm 0.00 in0.0 mm 0.00 in0.0 mm
04:50 AM 29.1°F-1.6°C 27.3°F-2.6°C 93% Calm Calm 2.0 mph3.2 kmh 30.27 in1025.1 mb 0.00 in0.0 mm 0.00 in0.0 mm 0.00 in0.0 mm
04:55 AM 29.0°F-1.7°C 27.2°F-2.7°C 93% 2.0 mph W3.2 kmh W 2.0 mph3.2 kmh 30.27 in1025.1 mb 0.00 in0.0 mm 0.00 in0.0 mm 0.00 in0.0 mm
05:00 AM 28.9°F-1.7°C 27.1°F-2.7°C 93% 1.0 mph W1.6 kmh W 4.0 mph6.4 kmh 30.27 in1025.1 mb 0.00 in0.0 mm 0.00 in0.0 mm 0.00 in0.0 mm
05:05 AM 28.5°F-1.9°C 26.7°F-2.9°C 93% Calm Calm 2.0 mph3.2 kmh 30.27 in1025.1 mb 0.00 in0.0 mm 0.00 in0.0 mm 0.00 in0.0 mm
05:10 AM 28.4°F-2.0°C 26.6°F-3.0°C 93% Calm Calm 2.0 mph3.2 kmh 30.27 in1025.1 mb 0.00 in0.0 mm 0.00 in0.0 mm 0.00 in0.0 mm
05:15 AM 28.2°F-2.1°C 26.4°F-3.1°C 93% Calm Calm 2.0 mph3.2 kmh 30.27 in1025.1 mb 0.00 in0.0 mm 0.00 in0.0 mm 0.00 in0.0 mm
05:20 AM 27.7°F-2.4°C 25.9°F-3.4°C 93% Calm Calm -- 30.28 in1025.4 mb 0.00 in0.0 mm 0.00 in0.0 mm 0.00 in0.0 mm
05:25 AM 27.6°F-2.4°C 25.8°F-3.4°C 93% Calm Calm -- 30.28 in1025.4 mb 0.00 in0.0 mm 0.00 in0.0 mm 0.00 in0.0 mm
05:30 AM 27.5°F-2.5°C 25.8°F-3.4°C 93% Calm Calm 3.0 mph4.8 kmh 30.28 in1025.4 mb 0.00 in0.0 mm 0.00 in0.0 mm 0.00 in0.0 mm
05:35 AM 27.6°F-2.4°C 25.8°F-3.4°C 93% Calm Calm 2.0 mph3.2 kmh 30.28 in1025.4 mb 0.00 in0.0 mm 0.00 in0.0 mm 0.00 in0.0 mm
05:40 AM 27.5°F-2.5°C 25.8°F-3.4°C 93% Calm Calm 2.0 mph3.2 kmh 30.28 in1025.4 mb 0.00 in0.0 mm 0.00 in0.0 mm 0.00 in0.0 mm
05:45 AM 27.4°F-2.6°C 25.7°F-3.5°C 93% Calm Calm 2.0 mph3.2 kmh 30.28 in1025.4 mb 0.00 in0.0 mm 0.00 in0.0 mm 0.00 in0.0 mm
05:50 AM 27.2°F-2.7°C 25.5°F-3.6°C 93% Calm Calm -- 30.28 in1025.4 mb 0.00 in0.0 mm 0.00 in0.0 mm 0.00 in0.0 mm
05:55 AM 27.2°F-2.7°C 25.5°F-3.6°C 93% Calm Calm 1.0 mph1.6 kmh 30.28 in1025.4 mb 0.00 in0.0 mm 0.00 in0.0 mm 0.00 in0.0 mm
06:00 AM 27.2°F-2.7°C 25.5°F-3.6°C 93% Calm Calm 1.0 mph1.6 kmh 30.28 in1025.4 mb 0.00 in0.0 mm 0.00 in0.0 mm 0.00 in0.0 mm
06:05 AM 27.1°F-2.7°C 25.4°F-3.7°C 93% Calm Calm -- 30.28 in1025.4 mb 0.00 in0.0 mm 0.00 in0.0 mm 0.00 in0.0 mm
06:10 AM 26.2°F-3.2°C 24.5°F-4.2°C 93% Calm Calm -- 30.28 in1025.4 mb 0.00 in0.0 mm 0.00 in0.0 mm 0.00 in0.0 mm
06:15 AM 26.6°F-3.0°C 25.1°F-3.8°C 94% Calm Calm -- 30.28 in1025.4 mb 0.00 in0.0 mm 0.00 in0.0 mm 0.00 in0.0 mm
06:20 AM 27.0°F-2.8°C 25.5°F-3.6°C 94% Calm Calm -- 30.29 in1025.7 mb 0.00 in0.0 mm 0.00 in0.0 mm 0.00 in0.0 mm
06:25 AM 27.1°F-2.7°C 25.6°F-3.6°C 94% Calm Calm -- 30.28 in1025.4 mb 0.00 in0.0 mm 0.00 in0.0 mm 0.00 in0.0 mm
06:30 AM 27.1°F-2.7°C 25.6°F-3.6°C 94% Calm Calm -- 30.29 in1025.7 mb 0.00 in0.0 mm 0.00 in0.0 mm 0.00 in0.0 mm
06:35 AM 26.8°F-2.9°C 25.3°F-3.7°C 94% Calm Calm -- 30.29 in1025.7 mb 0.00 in0.0 mm 0.00 in0.0 mm 0.00 in0.0 mm
06:40 AM 27.0°F-2.8°C 25.5°F-3.6°C 94% Calm Calm -- 30.29 in1025.7 mb 0.00 in0.0 mm 0.00 in0.0 mm 0.00 in0.0 mm
06:45 AM 27.0°F-2.8°C 25.5°F-3.6°C 94% Calm Calm -- 30.29 in1025.7 mb 0.00 in0.0 mm 0.00 in0.0 mm 0.00 in0.0 mm
06:55 AM 26.8°F-2.9°C 25.3°F-3.7°C 94% 2.0 mph W3.2 kmh W 2.0 mph3.2 kmh 30.30 in1026.1 mb 0.00 in0.0 mm 0.00 in0.0 mm 0.00 in0.0 mm
07:00 AM 27.1°F-2.7°C 25.6°F-3.6°C 94% 2.0 mph W3.2 kmh W 3.0 mph4.8 kmh 30.30 in1026.1 mb 0.00 in0.0 mm 0.00 in0.0 mm 0.00 in0.0 mm
07:05 AM 27.5°F-2.5°C 26.0°F-3.3°C 94% 2.0 mph W3.2 kmh W 4.0 mph6.4 kmh 30.29 in1025.7 mb 0.00 in0.0 mm 0.00 in0.0 mm 0.00 in0.0 mm
07:10 AM 27.9°F-2.3°C 26.4°F-3.1°C 94% Calm Calm 4.0 mph6.4 kmh 30.30 in1026.1 mb 0.00 in0.0 mm 0.00 in0.0 mm 0.00 in0.0 mm
07:15 AM 27.3°F-2.6°C 25.8°F-3.4°C 94% Calm Calm 4.0 mph6.4 kmh 30.30 in1026.1 mb 0.00 in0.0 mm 0.00 in0.0 mm 0.00 in0.0 mm
07:20 AM 27.5°F-2.5°C 26.0°F-3.3°C 94% Calm Calm -- 30.30 in1026.1 mb 0.00 in0.0 mm 0.00 in0.0 mm 0.00 in0.0 mm
07:25 AM 27.6°F-2.4°C 26.1°F-3.3°C 94% 1.0 mph W1.6 kmh W 2.0 mph3.2 kmh 30.31 in1026.4 mb 0.00 in0.0 mm 0.00 in0.0 mm 0.00 in0.0 mm
07:30 AM 27.6°F-2.4°C 26.1°F-3.3°C 94% 3.0 mph W4.8 kmh W 4.0 mph6.4 kmh 30.31 in1026.4 mb 0.00 in0.0 mm 0.00 in0.0 mm 0.00 in0.0 mm
07:35 AM 27.9°F-2.3°C 26.4°F-3.1°C 94% 1.0 mph W1.6 kmh W 5.0 mph8.0 kmh 30.31 in1026.4 mb 0.00 in0.0 mm 0.00 in0.0 mm 0.00 in0.0 mm
07:40 AM 27.8°F-2.3°C 26.3°F-3.2°C 94% Calm Calm 5.0 mph8.0 kmh 30.31 in1026.4 mb 0.00 in0.0 mm 0.00 in0.0 mm 0.00 in0.0 mm
07:45 AM 27.7°F-2.4°C 26.2°F-3.2°C 94% 3.0 mph W4.8 kmh W 5.0 mph8.0 kmh 30.31 in1026.4 mb 0.00 in0.0 mm 0.00 in0.0 mm 0.00 in0.0 mm
07:50 AM 27.8°F-2.3°C 26.3°F-3.2°C 94% 1.0 mph W1.6 kmh W 3.0 mph4.8 kmh 30.31 in1026.4 mb 0.00 in0.0 mm 0.00 in0.0 mm 0.00 in0.0 mm
07:55 AM 28.0°F-2.2°C 26.5°F-3.1°C 94% 1.0 mph W1.6 kmh W 3.0 mph4.8 kmh 30.31 in1026.4 mb 0.00 in0.0 mm 0.00 in0.0 mm 0.00 in0.0 mm
08:00 AM 28.2°F-2.1°C 26.7°F-2.9°C 94% 2.0 mph W3.2 kmh W 3.0 mph4.8 kmh 30.32 in1026.8 mb 0.00 in0.0 mm 0.00 in0.0 mm 0.00 in0.0 mm
08:05 AM 28.3°F-2.1°C 26.8°F-2.9°C 94% 3.0 mph W4.8 kmh W 5.0 mph8.0 kmh 30.32 in1026.8 mb 0.00 in0.0 mm 0.00 in0.0 mm 0.00 in0.0 mm
08:10 AM 28.6°F-1.9°C 27.1°F-2.7°C 94% 3.0 mph W4.8 kmh W 5.0 mph8.0 kmh 30.32 in1026.8 mb 0.00 in0.0 mm 0.00 in0.0 mm 0.00 in0.0 mm
08:15 AM 28.8°F-1.8°C 27.3°F-2.6°C 94% 4.0 mph W6.4 kmh W 5.0 mph8.0 kmh 30.32 in1026.8 mb 0.00 in0.0 mm 0.00 in0.0 mm 0.00 in0.0 mm
08:20 AM 29.1°F-1.6°C 27.6°F-2.4°C 94% 4.0 mph W6.4 kmh W 5.0 mph8.0 kmh 30.32 in1026.8 mb 0.00 in0.0 mm 0.00 in0.0 mm 0.00 in0.0 mm
08:25 AM 29.2°F-1.6°C 27.7°F-2.4°C 94% 2.0 mph W3.2 kmh W 5.0 mph8.0 kmh 30.32 in1026.8 mb 0.00 in0.0 mm 0.00 in0.0 mm 0.00 in0.0 mm
08:30 AM 29.3°F-1.5°C 27.8°F-2.3°C 94% 3.0 mph W4.8 kmh W 5.0 mph8.0 kmh 30.33 in1027.1 mb 0.00 in0.0 mm 0.00 in0.0 mm 0.00 in0.0 mm
08:35 AM 29.8°F-1.2°C 28.3°F-2.1°C 94% 1.0 mph W1.6 kmh W 6.0 mph9.7 kmh 30.33 in1027.1 mb 0.00 in0.0 mm 0.00 in0.0 mm 0.00 in0.0 mm
08:40 AM 30.1°F-1.1°C 28.6°F-1.9°C 94% 2.0 mph W3.2 kmh W 6.0 mph9.7 kmh 30.33 in1027.1 mb 0.00 in0.0 mm 0.00 in0.0 mm 0.00 in0.0 mm
08:45 AM 30.2°F-1.0°C 28.4°F-2.0°C 93% 3.0 mph W4.8 kmh W 6.0 mph9.7 kmh 30.34 in1027.4 mb 0.00 in0.0 mm 0.00 in0.0 mm 0.00 in0.0 mm
08:50 AM 30.3°F-0.9°C 28.5°F-1.9°C 93% 3.0 mph W4.8 kmh W 4.0 mph6.4 kmh 30.34 in1027.4 mb 0.00 in0.0 mm 0.00 in0.0 mm 0.00 in0.0 mm
08:55 AM 30.8°F-0.7°C 29.0°F-1.7°C 93% 2.0 mph W3.2 kmh W 4.0 mph6.4 kmh 30.34 in1027.4 mb 0.00 in0.0 mm 0.00 in0.0 mm 0.00 in0.0 mm
09:00 AM 31.2°F-0.4°C 29.2°F-1.6°C 92% 1.0 mph W1.6 kmh W 4.0 mph6.4 kmh 30.34 in1027.4 mb 0.00 in0.0 mm 0.00 in0.0 mm 0.00 in0.0 mm
09:05 AM 31.7°F-0.2°C 29.7°F-1.3°C 92% 2.0 mph W3.2 kmh W 5.0 mph8.0 kmh 30.34 in1027.4 mb 0.00 in0.0 mm 0.00 in0.0 mm 0.00 in0.0 mm
09:10 AM 32.1°F0.1°C 29.8°F-1.2°C 91% 1.0 mph W1.6 kmh W 5.0 mph8.0 kmh 30.34 in1027.4 mb 0.00 in0.0 mm 0.00 in0.0 mm 0.00 in0.0 mm
09:15 AM 32.4°F0.2°C 29.8°F-1.2°C 90% 1.0 mph W1.6 kmh W 5.0 mph8.0 kmh 30.35 in1027.8 mb 0.00 in0.0 mm 0.00 in0.0 mm 0.00 in0.0 mm
09:20 AM 32.3°F0.2°C 29.4°F-1.4°C 89% 3.0 mph W4.8 kmh W 3.0 mph4.8 kmh 30.35 in1027.8 mb 0.00 in0.0 mm 0.00 in0.0 mm 0.00 in0.0 mm
09:25 AM 32.6°F0.3°C 29.7°F-1.3°C 89% Calm Calm 4.0 mph6.4 kmh 30.35 in1027.8 mb 0.00 in0.0 mm 0.00 in0.0 mm 0.00 in0.0 mm
09:30 AM 33.0°F0.6°C 29.8°F-1.2°C 88% 1.0 mph W1.6 kmh W 4.0 mph6.4 kmh 30.35 in1027.8 mb 0.00 in0.0 mm 0.00 in0.0 mm 0.00 in0.0 mm
09:35 AM 33.5°F0.8°C 30.3°F-0.9°C 88% 2.0 mph WSW3.2 kmh WSW 4.0 mph6.4 kmh 30.35 in1027.8 mb 0.00 in0.0 mm 0.00 in0.0 mm 0.00 in0.0 mm
09:40 AM 34.0°F1.1°C 30.6°F-0.8°C 87% 1.0 mph WSW1.6 kmh WSW 4.0 mph6.4 kmh 30.35 in1027.8 mb 0.00 in0.0 mm 0.00 in0.0 mm 0.00 in0.0 mm
09:45 AM 34.3°F1.3°C 30.6°F-0.8°C 86% 3.0 mph WSW4.8 kmh WSW 4.0 mph6.4 kmh 30.35 in1027.8 mb 0.00 in0.0 mm 0.00 in0.0 mm 0.00 in0.0 mm
09:50 AM 34.4°F1.3°C 30.4°F-0.9°C 85% 5.0 mph W8.0 kmh W 5.0 mph8.0 kmh 30.35 in1027.8 mb 0.00 in0.0 mm 0.00 in0.0 mm 0.00 in0.0 mm
09:55 AM 34.7°F1.5°C 30.4°F-0.9°C 84% 5.0 mph W8.0 kmh W 6.0 mph9.7 kmh 30.36 in1028.1 mb 0.00 in0.0 mm 0.00 in0.0 mm 0.00 in0.0 mm
10:00 AM 35.1°F1.7°C 30.2°F-1.0°C 82% 1.0 mph WNW1.6 kmh WNW 6.0 mph9.7 kmh 30.36 in1028.1 mb 0.00 in0.0 mm 0.00 in0.0 mm 0.00 in0.0 mm
10:05 AM 35.3°F1.8°C 29.8°F-1.2°C 80% 3.0 mph WSW4.8 kmh WSW 6.0 mph9.7 kmh 30.36 in1028.1 mb 0.00 in0.0 mm 0.00 in0.0 mm 0.00 in0.0 mm
10:10 AM 35.6°F2.0°C 29.7°F-1.3°C 79% 2.0 mph W3.2 kmh W 6.0 mph9.7 kmh 30.36 in1028.1 mb 0.00 in0.0 mm 0.00 in0.0 mm 0.00 in0.0 mm
10:15 AM 36.1°F2.3°C 30.2°F-1.0°C 79% 5.0 mph W8.0 kmh W 6.0 mph9.7 kmh 30.36 in1028.1 mb 0.00 in0.0 mm 0.00 in0.0 mm 0.00 in0.0 mm
10:20 AM 36.2°F2.3°C 29.7°F-1.3°C 77% 3.0 mph W4.8 kmh W 5.0 mph8.0 kmh 30.36 in1028.1 mb 0.00 in0.0 mm 0.00 in0.0 mm 0.00 in0.0 mm
10:25 AM 36.5°F2.5°C 30.0°F-1.1°C 77% 1.0 mph W1.6 kmh W 6.0 mph9.7 kmh 30.36 in1028.1 mb 0.00 in0.0 mm 0.00 in0.0 mm 0.00 in0.0 mm
10:30 AM 36.6°F2.6°C 29.4°F-1.4°C 75% 3.0 mph W4.8 kmh W 6.0 mph9.7 kmh 30.36 in1028.1 mb 0.00 in0.0 mm 0.00 in0.0 mm 0.00 in0.0 mm
10:35 AM 37.0°F2.8°C 29.5°F-1.4°C 74% 2.0 mph WNW3.2 kmh WNW 6.0 mph9.7 kmh 30.37 in1028.4 mb 0.00 in0.0 mm 0.00 in0.0 mm 0.00 in0.0 mm
10:40 AM 37.4°F3.0°C 29.2°F-1.6°C 72% 4.0 mph WSW6.4 kmh WSW 7.0 mph11.3 kmh 30.38 in1028.8 mb 0.00 in0.0 mm 0.00 in0.0 mm 0.00 in0.0 mm
10:45 AM 37.8°F3.2°C 28.9°F-1.7°C 70% 2.0 mph WSW3.2 kmh WSW 7.0 mph11.3 kmh 30.38 in1028.8 mb 0.00 in0.0 mm 0.00 in0.0 mm 0.00 in0.0 mm
10:50 AM 37.9°F3.3°C 28.7°F-1.8°C 69% 2.0 mph WSW3.2 kmh WSW 4.0 mph6.4 kmh 30.39 in1029.1 mb 0.00 in0.0 mm 0.00 in0.0 mm 0.00 in0.0 mm
10:55 AM 38.3°F3.5°C 29.4°F-1.4°C 70% 4.0 mph WSW6.4 kmh WSW 4.0 mph6.4 kmh 30.39 in1029.1 mb 0.00 in0.0 mm 0.00 in0.0 mm 0.00 in0.0 mm
11:00 AM 38.8°F3.8°C 29.5°F-1.4°C 69% 4.0 mph E6.4 kmh E 5.0 mph8.0 kmh 30.39 in1029.1 mb 0.00 in0.0 mm 0.00 in0.0 mm 0.00 in0.0 mm
11:05 AM 38.8°F3.8°C 28.8°F-1.8°C 67% 1.0 mph E1.6 kmh E 4.0 mph6.4 kmh 30.39 in1029.1 mb 0.00 in0.0 mm 0.00 in0.0 mm 0.00 in0.0 mm
11:10 AM 38.8°F3.8°C 28.8°F-1.8°C 67% 1.0 mph E1.6 kmh E 4.0 mph6.4 kmh 30.39 in1029.1 mb 0.00 in0.0 mm 0.00 in0.0 mm 0.00 in0.0 mm
11:15 AM 39.3°F4.1°C 29.3°F-1.5°C 67% Calm Calm 4.0 mph6.4 kmh 30.39 in1029.1 mb 0.00 in0.0 mm 0.00 in0.0 mm 0.00 in0.0 mm
11:20 AM 39.3°F4.1°C 29.3°F-1.5°C 67% 3.0 mph E4.8 kmh E 4.0 mph6.4 kmh 30.39 in1029.1 mb 0.00 in0.0 mm 0.00 in0.0 mm 0.00 in0.0 mm
11:25 AM 39.5°F4.2°C 30.2°F-1.0°C 69% 6.0 mph SE9.7 kmh SE 7.0 mph11.3 kmh 30.39 in1029.1 mb 0.00 in0.0 mm 0.00 in0.0 mm 0.00 in0.0 mm
11:30 AM 39.7°F4.3°C 30.4°F-0.9°C 69% 4.0 mph SSE6.4 kmh SSE 8.0 mph12.9 kmh 30.39 in1029.1 mb 0.00 in0.0 mm 0.00 in0.0 mm 0.00 in0.0 mm
11:35 AM 39.5°F4.2°C 29.1°F-1.6°C 66% 4.0 mph SW6.4 kmh SW 7.0 mph11.3 kmh 30.39 in1029.1 mb 0.00 in0.0 mm 0.00 in0.0 mm 0.00 in0.0 mm
11:40 AM 40.1°F4.5°C 29.3°F-1.5°C 65% 2.0 mph S3.2 kmh S 7.0 mph11.3 kmh 30.39 in1029.1 mb 0.00 in0.0 mm 0.00 in0.0 mm 0.00 in0.0 mm
11:45 AM 40.2°F4.6°C 29.4°F-1.4°C 65% 3.0 mph S4.8 kmh S 7.0 mph11.3 kmh 30.39 in1029.1 mb 0.00 in0.0 mm 0.00 in0.0 mm 0.00 in0.0 mm
11:50 AM 40.9°F4.9°C 29.7°F-1.3°C 64% 4.0 mph S6.4 kmh S 6.0 mph9.7 kmh 30.39 in1029.1 mb 0.00 in0.0 mm 0.00 in0.0 mm 0.00 in0.0 mm
11:55 AM 41.4°F5.2°C 30.5°F-0.8°C 65% 1.0 mph SSE1.6 kmh SSE 7.0 mph11.3 kmh 30.39 in1029.1 mb 0.00 in0.0 mm 0.00 in0.0 mm 0.00 in0.0 mm
12:00 PM 41.3°F5.2°C 30.1°F-1.1°C 64% 7.0 mph SSE11.3 kmh SSE 9.0 mph14.5 kmh 30.39 in1029.1 mb 0.00 in0.0 mm 0.00 in0.0 mm 0.00 in0.0 mm
12:05 PM 41.5°F5.3°C 29.5°F-1.4°C 62% 5.0 mph S8.0 kmh S 7.0 mph11.3 kmh 30.38 in1028.8 mb 0.00 in0.0 mm 0.00 in0.0 mm 0.00 in0.0 mm
12:20 PM 42.0°F5.6°C 31.1°F-0.5°C 65% 6.0 mph S9.7 kmh S 8.0 mph12.9 kmh 30.38 in1028.8 mb 0.00 in0.0 mm 0.00 in0.0 mm 0.00 in0.0 mm
12:25 PM 43.1°F6.2°C 31.8°F-0.1°C 64% 4.0 mph S6.4 kmh S 8.0 mph12.9 kmh 30.38 in1028.8 mb 0.00 in0.0 mm 0.00 in0.0 mm 0.00 in0.0 mm
12:30 PM 43.6°F6.4°C 31.9°F-0.1°C 63% 5.0 mph SSE8.0 kmh SSE 8.0 mph12.9 kmh 30.38 in1028.8 mb 0.00 in0.0 mm 0.00 in0.0 mm 0.00 in0.0 mm
12:45 PM 43.5°F6.4°C 29.7°F-1.3°C 58% 1.0 mph S1.6 kmh S 10.0 mph16.1 kmh 30.37 in1028.4 mb 0.00 in0.0 mm 0.00 in0.0 mm 0.00 in0.0 mm
12:50 PM 43.9°F6.6°C 30.5°F-0.8°C 59% 7.0 mph SE11.3 kmh SE 9.0 mph14.5 kmh 30.36 in1028.1 mb 0.00 in0.0 mm 0.00 in0.0 mm 0.00 in0.0 mm
12:55 PM 44.7°F7.1°C 30.9°F-0.6°C 58% 6.0 mph SE9.7 kmh SE 9.0 mph14.5 kmh 30.36 in1028.1 mb 0.00 in0.0 mm 0.00 in0.0 mm 0.00 in0.0 mm
01:00 PM 45.6°F7.6°C 30.8°F-0.7°C 56% 9.0 mph SE14.5 kmh SE 13.0 mph20.9 kmh 30.36 in1028.1 mb 0.00 in0.0 mm 0.00 in0.0 mm 0.00 in0.0 mm
01:05 PM 46.4°F8.0°C 31.6°F-0.2°C 56% 9.0 mph S14.5 kmh S 12.0 mph19.3 kmh 30.36 in1028.1 mb 0.00 in0.0 mm 0.00 in0.0 mm 0.00 in0.0 mm
01:10 PM 45.8°F7.7°C 30.1°F-1.1°C 54% 10.0 mph ESE16.1 kmh ESE 15.0 mph24.1 kmh 30.35 in1027.8 mb 0.00 in0.0 mm 0.00 in0.0 mm 0.00 in0.0 mm
01:15 PM 45.6°F7.6°C 29.9°F-1.2°C 54% 6.0 mph SE9.7 kmh SE 15.0 mph24.1 kmh 30.35 in1027.8 mb 0.00 in0.0 mm 0.00 in0.0 mm 0.00 in0.0 mm
01:20 PM 45.4°F7.4°C 30.2°F-1.0°C 55% 8.0 mph SE12.9 kmh SE 13.0 mph20.9 kmh 30.35 in1027.8 mb 0.00 in0.0 mm 0.00 in0.0 mm 0.00 in0.0 mm
01:25 PM 45.7°F7.6°C 30.9°F-0.6°C 56% 8.0 mph SE12.9 kmh SE 14.0 mph22.5 kmh 30.35 in1027.8 mb 0.00 in0.0 mm 0.00 in0.0 mm 0.00 in0.0 mm
01:30 PM 45.4°F7.4°C 31.1°F-0.5°C 57% 13.0 mph SE20.9 kmh SE 14.0 mph22.5 kmh 30.35 in1027.8 mb 0.00 in0.0 mm 0.00 in0.0 mm 0.00 in0.0 mm
01:35 PM 45.2°F7.3°C 30.9°F-0.6°C 57% 6.0 mph SE9.7 kmh SE 13.0 mph20.9 kmh 30.35 in1027.8 mb 0.00 in0.0 mm 0.00 in0.0 mm 0.00 in0.0 mm
01:40 PM 44.7°F7.1°C 30.4°F-0.9°C 57% 6.0 mph SE9.7 kmh SE 13.0 mph20.9 kmh 30.34 in1027.4 mb 0.00 in0.0 mm 0.00 in0.0 mm 0.00 in0.0 mm
01:45 PM 44.9°F7.2°C 31.9°F-0.1°C 60% 8.0 mph SSE12.9 kmh SSE 13.0 mph20.9 kmh 30.34 in1027.4 mb 0.00 in0.0 mm 0.00 in0.0 mm 0.00 in0.0 mm
01:50 PM 44.9°F7.2°C 32.3°F0.2°C 61% 4.0 mph S6.4 kmh S 14.0 mph22.5 kmh 30.34 in1027.4 mb 0.00 in0.0 mm 0.00 in0.0 mm 0.00 in0.0 mm
01:55 PM 44.9°F7.2°C 33.1°F0.6°C 63% 6.0 mph SE9.7 kmh SE 14.0 mph22.5 kmh 30.34 in1027.4 mb 0.00 in0.0 mm 0.00 in0.0 mm 0.00 in0.0 mm
02:00 PM 44.6°F7.0°C 33.2°F0.7°C 64% 6.0 mph SE9.7 kmh SE 15.0 mph24.1 kmh 30.34 in1027.4 mb 0.00 in0.0 mm 0.00 in0.0 mm 0.00 in0.0 mm
02:05 PM 44.5°F6.9°C 33.5°F0.8°C 65% 7.0 mph S11.3 kmh S 11.0 mph17.7 kmh 30.33 in1027.1 mb 0.00 in0.0 mm 0.00 in0.0 mm 0.00 in0.0 mm
02:10 PM 44.7°F7.1°C 32.9°F0.5°C 63% 5.0 mph SE8.0 kmh SE 12.0 mph19.3 kmh 30.33 in1027.1 mb 0.00 in0.0 mm 0.00 in0.0 mm 0.00 in0.0 mm
02:15 PM 44.5°F6.9°C 33.1°F0.6°C 64% 10.0 mph SE16.1 kmh SE 15.0 mph24.1 kmh 30.33 in1027.1 mb 0.00 in0.0 mm 0.00 in0.0 mm 0.00 in0.0 mm
02:20 PM 44.6°F7.0°C 34.0°F1.1°C 66% 6.0 mph SSE9.7 kmh SSE 9.0 mph14.5 kmh 30.33 in1027.1 mb 0.00 in0.0 mm 0.00 in0.0 mm 0.00 in0.0 mm
02:25 PM 44.6°F7.0°C 33.2°F0.7°C 64% 8.0 mph S12.9 kmh S 14.0 mph22.5 kmh 30.33 in1027.1 mb 0.00 in0.0 mm 0.00 in0.0 mm 0.00 in0.0 mm
02:30 PM 44.6°F7.0°C 33.2°F0.7°C 64% 8.0 mph SE12.9 kmh SE 14.0 mph22.5 kmh 30.33 in1027.1 mb 0.00 in0.0 mm 0.00 in0.0 mm 0.00 in0.0 mm
02:35 PM 44.5°F6.9°C 33.9°F1.1°C 66% 5.0 mph SE8.0 kmh SE 10.0 mph16.1 kmh 30.33 in1027.1 mb 0.00 in0.0 mm 0.00 in0.0 mm 0.00 in0.0 mm
02:40 PM 44.6°F7.0°C 33.6°F0.9°C 65% 3.0 mph SE4.8 kmh SE 10.0 mph16.1 kmh 30.32 in1026.8 mb 0.00 in0.0 mm 0.00 in0.0 mm 0.00 in0.0 mm
02:45 PM 44.6°F7.0°C 33.6°F0.9°C 65% 2.0 mph SSE3.2 kmh SSE 10.0 mph16.1 kmh 30.33 in1027.1 mb 0.00 in0.0 mm 0.00 in0.0 mm 0.00 in0.0 mm
02:50 PM 44.3°F6.8°C 33.3°F0.7°C 65% 3.0 mph SSE4.8 kmh SSE 9.0 mph14.5 kmh 30.32 in1026.8 mb 0.00 in0.0 mm 0.00 in0.0 mm 0.00 in0.0 mm
02:55 PM 44.2°F6.8°C 33.2°F0.7°C 65% 5.0 mph SE8.0 kmh SE 12.0 mph19.3 kmh 30.32 in1026.8 mb 0.00 in0.0 mm 0.00 in0.0 mm 0.00 in0.0 mm
03:00 PM 44.2°F6.8°C 33.6°F0.9°C 66% 7.0 mph S11.3 kmh S 12.0 mph19.3 kmh 30.32 in1026.8 mb 0.00 in0.0 mm 0.00 in0.0 mm 0.00 in0.0 mm
03:05 PM 44.3°F6.8°C 33.7°F0.9°C 66% 7.0 mph SSE11.3 kmh SSE 9.0 mph14.5 kmh 30.31 in1026.4 mb 0.00 in0.0 mm 0.00 in0.0 mm 0.00 in0.0 mm
03:10 PM 44.4°F6.9°C 33.4°F0.8°C 65% 3.0 mph SSE4.8 kmh SSE 9.0 mph14.5 kmh 30.31 in1026.4 mb 0.00 in0.0 mm 0.00 in0.0 mm 0.00 in0.0 mm
03:15 PM 44.6°F7.0°C 33.6°F0.9°C 65% 6.0 mph ESE9.7 kmh ESE 9.0 mph14.5 kmh 30.31 in1026.4 mb 0.00 in0.0 mm 0.00 in0.0 mm 0.00 in0.0 mm
03:20 PM 44.5°F6.9°C 32.3°F0.2°C 62% 1.0 mph SE1.6 kmh SE 10.0 mph16.1 kmh 30.31 in1026.4 mb 0.00 in0.0 mm 0.00 in0.0 mm 0.00 in0.0 mm
03:25 PM 44.6°F7.0°C 32.4°F0.2°C 62% 3.0 mph SSE4.8 kmh SSE 10.0 mph16.1 kmh 30.31 in1026.4 mb 0.00 in0.0 mm 0.00 in0.0 mm 0.00 in0.0 mm
03:30 PM 44.6°F7.0°C 32.8°F0.4°C 63% 4.0 mph SE6.4 kmh SE 10.0 mph16.1 kmh 30.31 in1026.4 mb 0.00 in0.0 mm 0.00 in0.0 mm 0.00 in0.0 mm
03:35 PM 44.6°F7.0°C 33.2°F0.7°C 64% 5.0 mph SE8.0 kmh SE 7.0 mph11.3 kmh 30.31 in1026.4 mb 0.00 in0.0 mm 0.00 in0.0 mm 0.00 in0.0 mm
03:40 PM 44.5°F6.9°C 31.5°F-0.3°C 60% 3.0 mph SE4.8 kmh SE 8.0 mph12.9 kmh 30.31 in1026.4 mb 0.00 in0.0 mm 0.00 in0.0 mm 0.00 in0.0 mm
03:45 PM 44.5°F6.9°C 31.9°F-0.1°C 61% 5.0 mph ESE8.0 kmh ESE 9.0 mph14.5 kmh 30.31 in1026.4 mb 0.00 in0.0 mm 0.00 in0.0 mm 0.00 in0.0 mm
03:50 PM 44.4°F6.9°C 31.8°F-0.1°C 61% 6.0 mph SE9.7 kmh SE 8.0 mph12.9 kmh 30.31 in1026.4 mb 0.00 in0.0 mm 0.00 in0.0 mm 0.00 in0.0 mm
03:55 PM 44.5°F6.9°C 32.3°F0.2°C 62% 5.0 mph SSE8.0 kmh SSE 8.0 mph12.9 kmh 30.31 in1026.4 mb 0.00 in0.0 mm 0.00 in0.0 mm 0.00 in0.0 mm
04:00 PM 44.6°F7.0°C 32.8°F0.4°C 63% 1.0 mph S1.6 kmh S 8.0 mph12.9 kmh 30.31 in1026.4 mb 0.00 in0.0 mm 0.00 in0.0 mm 0.00 in0.0 mm
04:05 PM 44.6°F7.0°C 32.4°F0.2°C 62% 2.0 mph SE3.2 kmh SE 5.0 mph8.0 kmh 30.31 in1026.4 mb 0.00 in0.0 mm 0.00 in0.0 mm 0.00 in0.0 mm
04:10 PM 44.5°F6.9°C 32.3°F0.2°C 62% 3.0 mph SSE4.8 kmh SSE 6.0 mph9.7 kmh 30.31 in1026.4 mb 0.00 in0.0 mm 0.00 in0.0 mm 0.00 in0.0 mm
04:15 PM 44.7°F7.1°C 32.1°F0.1°C 61% 4.0 mph SE6.4 kmh SE 8.0 mph12.9 kmh 30.31 in1026.4 mb 0.00 in0.0 mm 0.00 in0.0 mm 0.00 in0.0 mm
04:20 PM 44.5°F6.9°C 32.3°F0.2°C 62% 4.0 mph SSE6.4 kmh SSE 5.0 mph8.0 kmh 30.31 in1026.4 mb 0.00 in0.0 mm 0.00 in0.0 mm 0.00 in0.0 mm
04:25 PM 44.4°F6.9°C 33.0°F0.6°C 64% 1.0 mph S1.6 kmh S 5.0 mph8.0 kmh 30.31 in1026.4 mb 0.00 in0.0 mm 0.00 in0.0 mm 0.00 in0.0 mm
04:30 PM 44.3°F6.8°C 32.5°F0.3°C 63% 2.0 mph SSE3.2 kmh SSE 6.0 mph9.7 kmh 30.30 in1026.1 mb 0.00 in0.0 mm 0.00 in0.0 mm 0.00 in0.0 mm
04:35 PM 44.1°F6.7°C 32.3°F0.2°C 63% 5.0 mph SSE8.0 kmh SSE 7.0 mph11.3 kmh 30.30 in1026.1 mb 0.00 in0.0 mm 0.00 in0.0 mm 0.00 in0.0 mm
04:40 PM 43.9°F6.6°C 32.5°F0.3°C 64% 6.0 mph SE9.7 kmh SE 7.0 mph11.3 kmh 30.30 in1026.1 mb 0.00 in0.0 mm 0.00 in0.0 mm 0.00 in0.0 mm
04:45 PM 43.8°F6.6°C 32.4°F0.2°C 64% 3.0 mph SSE4.8 kmh SSE 7.0 mph11.3 kmh 30.30 in1026.1 mb 0.00 in0.0 mm 0.00 in0.0 mm 0.00 in0.0 mm
04:50 PM 43.6°F6.4°C 32.6°F0.3°C 65% 5.0 mph SSE8.0 kmh SSE 9.0 mph14.5 kmh 30.30 in1026.1 mb 0.00 in0.0 mm 0.00 in0.0 mm 0.00 in0.0 mm
04:55 PM 43.4°F6.3°C 32.4°F0.2°C 65% 3.0 mph SE4.8 kmh SE 9.0 mph14.5 kmh 30.30 in1026.1 mb 0.00 in0.0 mm 0.00 in0.0 mm 0.00 in0.0 mm
05:00 PM 43.2°F6.2°C 32.6°F0.3°C 66% 3.0 mph SE4.8 kmh SE 9.0 mph14.5 kmh 30.30 in1026.1 mb 0.00 in0.0 mm 0.00 in0.0 mm 0.00 in0.0 mm
05:05 PM 43.0°F6.1°C 32.8°F0.4°C 67% Calm Calm 4.0 mph6.4 kmh 30.30 in1026.1 mb 0.00 in0.0 mm 0.00 in0.0 mm 0.00 in0.0 mm
05:10 PM 42.8°F6.0°C 32.6°F0.3°C 67% 1.0 mph SE1.6 kmh SE 4.0 mph6.4 kmh 30.30 in1026.1 mb 0.00 in0.0 mm 0.00 in0.0 mm 0.00 in0.0 mm
05:15 PM 42.5°F5.8°C 32.7°F0.4°C 68% Calm Calm 4.0 mph6.4 kmh 30.30 in1026.1 mb 0.00 in0.0 mm 0.00 in0.0 mm 0.00 in0.0 mm
05:20 PM 42.3°F5.7°C 32.9°F0.5°C 69% Calm Calm 2.0 mph3.2 kmh 30.30 in1026.1 mb 0.00 in0.0 mm 0.00 in0.0 mm 0.00 in0.0 mm
05:25 PM 41.8°F5.4°C 32.4°F0.2°C 69% Calm Calm 2.0 mph3.2 kmh 30.30 in1026.1 mb 0.00 in0.0 mm 0.00 in0.0 mm 0.00 in0.0 mm
05:30 PM 41.5°F5.3°C 32.5°F0.3°C 70% Calm Calm 2.0 mph3.2 kmh 30.29 in1025.7 mb 0.00 in0.0 mm 0.00 in0.0 mm 0.00 in0.0 mm
05:35 PM 40.8°F4.9°C 32.5°F0.3°C 72% 2.0 mph SE3.2 kmh SE 2.0 mph3.2 kmh 30.29 in1025.7 mb 0.00 in0.0 mm 0.00 in0.0 mm 0.00 in0.0 mm
05:40 PM 40.3°F4.6°C 32.0°F0.0°C 72% 2.0 mph SE3.2 kmh SE 2.0 mph3.2 kmh 30.29 in1025.7 mb 0.00 in0.0 mm 0.00 in0.0 mm 0.00 in0.0 mm
05:45 PM 39.9°F4.4°C 32.3°F0.2°C 74% 1.0 mph SE1.6 kmh SE 2.0 mph3.2 kmh 30.29 in1025.7 mb 0.00 in0.0 mm 0.00 in0.0 mm 0.00 in0.0 mm
05:50 PM 39.4°F4.1°C 32.2°F0.1°C 75% 1.0 mph SE1.6 kmh SE 2.0 mph3.2 kmh 30.29 in1025.7 mb 0.00 in0.0 mm 0.00 in0.0 mm 0.00 in0.0 mm
05:55 PM 39.0°F3.9°C 31.8°F-0.1°C 75% 2.0 mph SE3.2 kmh SE 2.0 mph3.2 kmh 30.29 in1025.7 mb 0.00 in0.0 mm 0.00 in0.0 mm 0.00 in0.0 mm
06:05 PM 38.1°F3.4°C 31.5°F-0.3°C 77% 1.0 mph SE1.6 kmh SE 2.0 mph3.2 kmh 30.29 in1025.7 mb 0.00 in0.0 mm 0.00 in0.0 mm 0.00 in0.0 mm
06:10 PM 37.9°F3.3°C 31.7°F-0.2°C 78% 2.0 mph SE3.2 kmh SE 3.0 mph4.8 kmh 30.28 in1025.4 mb 0.00 in0.0 mm 0.00 in0.0 mm 0.00 in0.0 mm
06:15 PM 37.8°F3.2°C 31.3°F-0.4°C 77% 2.0 mph ESE3.2 kmh ESE 5.0 mph8.0 kmh 30.28 in1025.4 mb 0.00 in0.0 mm 0.00 in0.0 mm 0.00 in0.0 mm
06:20 PM 37.8°F3.2°C 30.9°F-0.6°C 76% 2.0 mph ESE3.2 kmh ESE 3.0 mph4.8 kmh 30.28 in1025.4 mb 0.00 in0.0 mm 0.00 in0.0 mm 0.00 in0.0 mm
06:25 PM 38.0°F3.3°C 29.8°F-1.2°C 72% 1.0 mph ESE1.6 kmh ESE 3.0 mph4.8 kmh 30.28 in1025.4 mb 0.00 in0.0 mm 0.00 in0.0 mm 0.00 in0.0 mm
06:30 PM 37.7°F3.2°C 28.8°F-1.8°C 70% 2.0 mph ESE3.2 kmh ESE 4.0 mph6.4 kmh 30.28 in1025.4 mb 0.00 in0.0 mm 0.00 in0.0 mm 0.00 in0.0 mm
06:35 PM 37.8°F3.2°C 28.2°F-2.1°C 68% 1.0 mph ESE1.6 kmh ESE 4.0 mph6.4 kmh 30.28 in1025.4 mb 0.00 in0.0 mm 0.00 in0.0 mm 0.00 in0.0 mm
06:40 PM 38.1°F3.4°C 27.4°F-2.6°C 65% 2.0 mph ESE3.2 kmh ESE 4.0 mph6.4 kmh 30.28 in1025.4 mb 0.00 in0.0 mm 0.00 in0.0 mm 0.00 in0.0 mm
06:45 PM 38.2°F3.4°C 27.1°F-2.7°C 64% 2.0 mph ESE3.2 kmh ESE 5.0 mph8.0 kmh 30.28 in1025.4 mb 0.00 in0.0 mm 0.00 in0.0 mm 0.00 in0.0 mm
06:50 PM 38.2°F3.4°C 26.7°F-2.9°C 63% 4.0 mph ESE6.4 kmh ESE 5.0 mph8.0 kmh 30.28 in1025.4 mb 0.00 in0.0 mm 0.00 in0.0 mm 0.00 in0.0 mm
06:55 PM 38.2°F3.4°C 26.7°F-2.9°C 63% 1.0 mph ESE1.6 kmh ESE 5.0 mph8.0 kmh 30.28 in1025.4 mb 0.00 in0.0 mm 0.00 in0.0 mm 0.00 in0.0 mm
07:05 PM 37.9°F3.3°C 26.5°F-3.1°C 63% 4.0 mph ESE6.4 kmh ESE 5.0 mph8.0 kmh 30.28 in1025.4 mb 0.00 in0.0 mm 0.00 in0.0 mm 0.00 in0.0 mm
07:10 PM 37.7°F3.2°C 26.3°F-3.2°C 63% 2.0 mph ESE3.2 kmh ESE 5.0 mph8.0 kmh 30.28 in1025.4 mb 0.00 in0.0 mm 0.00 in0.0 mm 0.00 in0.0 mm
07:15 PM 37.5°F3.1°C 26.1°F-3.3°C 63% 2.0 mph ESE3.2 kmh ESE 6.0 mph9.7 kmh 30.28 in1025.4 mb 0.00 in0.0 mm 0.00 in0.0 mm 0.00 in0.0 mm
07:20 PM 37.4°F3.0°C 26.4°F-3.1°C 64% 2.0 mph ESE3.2 kmh ESE 4.0 mph6.4 kmh 30.28 in1025.4 mb 0.00 in0.0 mm 0.00 in0.0 mm 0.00 in0.0 mm
07:25 PM 37.2°F2.9°C 26.2°F-3.2°C 64% 2.0 mph ESE3.2 kmh ESE 5.0 mph8.0 kmh 30.27 in1025.1 mb 0.00 in0.0 mm 0.00 in0.0 mm 0.00 in0.0 mm
07:30 PM 36.8°F2.7°C 26.2°F-3.2°C 65% 2.0 mph ESE3.2 kmh ESE 5.0 mph8.0 kmh 30.27 in1025.1 mb 0.00 in0.0 mm 0.00 in0.0 mm 0.00 in0.0 mm
07:35 PM 36.8°F2.7°C 26.5°F-3.1°C 66% 3.0 mph ESE4.8 kmh ESE 5.0 mph8.0 kmh 30.28 in1025.4 mb 0.00 in0.0 mm 0.00 in0.0 mm 0.00 in0.0 mm
07:40 PM 37.0°F2.8°C 26.7°F-2.9°C 66% 2.0 mph ESE3.2 kmh ESE 5.0 mph8.0 kmh 30.27 in1025.1 mb 0.00 in0.0 mm 0.00 in0.0 mm 0.00 in0.0 mm
07:45 PM 36.9°F2.7°C 26.6°F-3.0°C 66% 4.0 mph ESE6.4 kmh ESE 7.0 mph11.3 kmh 30.27 in1025.1 mb 0.00 in0.0 mm 0.00 in0.0 mm 0.00 in0.0 mm
07:50 PM 36.6°F2.6°C 26.7°F-2.9°C 67% 3.0 mph ESE4.8 kmh ESE 7.0 mph11.3 kmh 30.27 in1025.1 mb 0.00 in0.0 mm 0.00 in0.0 mm 0.00 in0.0 mm
07:55 PM 36.5°F2.5°C 27.0°F-2.8°C 68% 2.0 mph ESE3.2 kmh ESE 7.0 mph11.3 kmh 30.27 in1025.1 mb 0.00 in0.0 mm 0.00 in0.0 mm 0.00 in0.0 mm
08:00 PM 36.4°F2.4°C 26.9°F-2.8°C 68% 4.0 mph SE6.4 kmh SE 7.0 mph11.3 kmh 30.27 in1025.1 mb 0.00 in0.0 mm 0.00 in0.0 mm 0.00 in0.0 mm
08:05 PM 36.2°F2.3°C 26.7°F-2.9°C 68% 5.0 mph SE8.0 kmh SE 8.0 mph12.9 kmh 30.27 in1025.1 mb 0.00 in0.0 mm 0.00 in0.0 mm 0.00 in0.0 mm
08:10 PM 36.2°F2.3°C 26.7°F-2.9°C 68% 3.0 mph SE4.8 kmh SE 8.0 mph12.9 kmh 30.27 in1025.1 mb 0.00 in0.0 mm 0.00 in0.0 mm 0.00 in0.0 mm
08:15 PM 36.1°F2.3°C 26.6°F-3.0°C 68% 4.0 mph ESE6.4 kmh ESE 8.0 mph12.9 kmh 30.27 in1025.1 mb 0.00 in0.0 mm 0.00 in0.0 mm 0.00 in0.0 mm
08:20 PM 36.0°F2.2°C 26.8°F-2.9°C 69% 3.0 mph SE4.8 kmh SE 9.0 mph14.5 kmh 30.27 in1025.1 mb 0.00 in0.0 mm 0.00 in0.0 mm 0.00 in0.0 mm
08:25 PM 36.1°F2.3°C 26.9°F-2.8°C 69% 5.0 mph SE8.0 kmh SE 9.0 mph14.5 kmh 30.27 in1025.1 mb 0.00 in0.0 mm 0.00 in0.0 mm 0.00 in0.0 mm
08:30 PM 36.2°F2.3°C 26.7°F-2.9°C 68% 4.0 mph SE6.4 kmh SE 9.0 mph14.5 kmh 30.27 in1025.1 mb 0.00 in0.0 mm 0.00 in0.0 mm 0.00 in0.0 mm
08:35 PM 36.1°F2.3°C 26.9°F-2.8°C 69% 4.0 mph SE6.4 kmh SE 7.0 mph11.3 kmh 30.27 in1025.1 mb 0.00 in0.0 mm 0.00 in0.0 mm 0.00 in0.0 mm
08:40 PM 35.9°F2.2°C 26.7°F-2.9°C 69% 3.0 mph SE4.8 kmh SE 8.0 mph12.9 kmh 30.27 in1025.1 mb 0.00 in0.0 mm 0.00 in0.0 mm 0.00 in0.0 mm
08:50 PM 35.5°F1.9°C 26.7°F-2.9°C 70% 4.0 mph SE6.4 kmh SE 9.0 mph14.5 kmh 30.27 in1025.1 mb 0.00 in0.0 mm 0.00 in0.0 mm 0.00 in0.0 mm
08:55 PM 35.4°F1.9°C 26.6°F-3.0°C 70% 5.0 mph SE8.0 kmh SE 9.0 mph14.5 kmh 30.27 in1025.1 mb 0.00 in0.0 mm 0.00 in0.0 mm 0.00 in0.0 mm
09:00 PM 35.3°F1.8°C 26.5°F-3.1°C 70% 5.0 mph SE8.0 kmh SE 9.0 mph14.5 kmh 30.27 in1025.1 mb 0.00 in0.0 mm 0.00 in0.0 mm 0.00 in0.0 mm
09:05 PM 35.1°F1.7°C 26.3°F-3.2°C 70% 3.0 mph SE4.8 kmh SE 6.0 mph9.7 kmh 30.27 in1025.1 mb 0.00 in0.0 mm 0.00 in0.0 mm 0.00 in0.0 mm
09:10 PM 35.0°F1.7°C 26.2°F-3.2°C 70% 3.0 mph SSE4.8 kmh SSE 8.0 mph12.9 kmh 30.27 in1025.1 mb 0.00 in0.0 mm 0.00 in0.0 mm 0.00 in0.0 mm
09:15 PM 34.9°F1.6°C 26.1°F-3.3°C 70% 4.0 mph SE6.4 kmh SE 8.0 mph12.9 kmh 30.27 in1025.1 mb 0.00 in0.0 mm 0.00 in0.0 mm 0.00 in0.0 mm
09:20 PM 34.8°F1.6°C 26.0°F-3.3°C 70% 4.0 mph SE6.4 kmh SE 7.0 mph11.3 kmh 30.27 in1025.1 mb 0.00 in0.0 mm 0.00 in0.0 mm 0.00 in0.0 mm
09:25 PM 34.6°F1.4°C 25.8°F-3.4°C 70% 3.0 mph SE4.8 kmh SE 7.0 mph11.3 kmh 30.27 in1025.1 mb 0.00 in0.0 mm 0.00 in0.0 mm 0.00 in0.0 mm
09:30 PM 34.4°F1.3°C 26.0°F-3.3°C 71% 3.0 mph ESE4.8 kmh ESE 7.0 mph11.3 kmh 30.27 in1025.1 mb 0.00 in0.0 mm 0.00 in0.0 mm 0.00 in0.0 mm
09:35 PM 34.5°F1.4°C 25.7°F-3.5°C 70% 4.0 mph SE6.4 kmh SE 7.0 mph11.3 kmh 30.27 in1025.1 mb 0.00 in0.0 mm 0.00 in0.0 mm 0.00 in0.0 mm
09:40 PM 34.5°F1.4°C 25.7°F-3.5°C 70% 3.0 mph ESE4.8 kmh ESE 7.0 mph11.3 kmh 30.27 in1025.1 mb 0.00 in0.0 mm 0.00 in0.0 mm 0.00 in0.0 mm
09:45 PM 34.5°F1.4°C 25.7°F-3.5°C 70% 4.0 mph SE6.4 kmh SE 7.0 mph11.3 kmh 30.27 in1025.1 mb 0.00 in0.0 mm 0.00 in0.0 mm 0.00 in0.0 mm
09:50 PM 34.4°F1.3°C 25.6°F-3.6°C 70% 4.0 mph SE6.4 kmh SE 8.0 mph12.9 kmh 30.27 in1025.1 mb 0.00 in0.0 mm 0.00 in0.0 mm 0.00 in0.0 mm
09:55 PM 34.1°F1.2°C 25.7°F-3.5°C 71% 3.0 mph SE4.8 kmh SE 8.0 mph12.9 kmh 30.27 in1025.1 mb 0.00 in0.0 mm 0.00 in0.0 mm 0.00 in0.0 mm
10:00 PM 33.8°F1.0°C 25.7°F-3.5°C 72% 6.0 mph SE9.7 kmh SE 8.0 mph12.9 kmh 30.27 in1025.1 mb 0.00 in0.0 mm 0.00 in0.0 mm 0.00 in0.0 mm
10:05 PM 33.5°F0.8°C 25.8°F-3.4°C 73% 6.0 mph SE9.7 kmh SE 7.0 mph11.3 kmh 30.26 in1024.7 mb 0.00 in0.0 mm 0.00 in0.0 mm 0.00 in0.0 mm
10:10 PM 33.3°F0.7°C 25.6°F-3.6°C 73% 3.0 mph SE4.8 kmh SE 9.0 mph14.5 kmh 30.26 in1024.7 mb 0.00 in0.0 mm 0.00 in0.0 mm 0.00 in0.0 mm
10:15 PM 33.2°F0.7°C 25.5°F-3.6°C 73% 3.0 mph SSE4.8 kmh SSE 9.0 mph14.5 kmh 30.26 in1024.7 mb 0.00 in0.0 mm 0.00 in0.0 mm 0.00 in0.0 mm
10:20 PM 33.4°F0.8°C 25.7°F-3.5°C 73% 4.0 mph SE6.4 kmh SE 9.0 mph14.5 kmh 30.26 in1024.7 mb 0.00 in0.0 mm 0.00 in0.0 mm 0.00 in0.0 mm
10:25 PM 33.4°F0.8°C 25.4°F-3.7°C 72% 5.0 mph ESE8.0 kmh ESE 9.0 mph14.5 kmh 30.26 in1024.7 mb 0.00 in0.0 mm 0.00 in0.0 mm 0.00 in0.0 mm
10:30 PM 33.4°F0.8°C 25.7°F-3.5°C 73% 4.0 mph SE6.4 kmh SE 9.0 mph14.5 kmh 30.25 in1024.4 mb 0.00 in0.0 mm 0.00 in0.0 mm 0.00 in0.0 mm
10:35 PM 33.3°F0.7°C 25.3°F-3.7°C 72% 3.0 mph SE4.8 kmh SE 8.0 mph12.9 kmh 30.25 in1024.4 mb 0.00 in0.0 mm 0.00 in0.0 mm 0.00 in0.0 mm
10:40 PM 33.2°F0.7°C 25.2°F-3.8°C 72% 3.0 mph SE4.8 kmh SE 9.0 mph14.5 kmh 30.25 in1024.4 mb 0.00 in0.0 mm 0.00 in0.0 mm 0.00 in0.0 mm
10:45 PM 33.1°F0.6°C 25.4°F-3.7°C 73% 4.0 mph SE6.4 kmh SE 9.0 mph14.5 kmh 30.25 in1024.4 mb 0.00 in0.0 mm 0.00 in0.0 mm 0.00 in0.0 mm
10:50 PM 33.0°F0.6°C 25.3°F-3.7°C 73% 6.0 mph SE9.7 kmh SE 9.0 mph14.5 kmh 30.25 in1024.4 mb 0.00 in0.0 mm 0.00 in0.0 mm 0.00 in0.0 mm
10:55 PM 32.9°F0.5°C 25.2°F-3.8°C 73% 6.0 mph SE9.7 kmh SE 9.0 mph14.5 kmh 30.25 in1024.4 mb 0.00 in0.0 mm 0.00 in0.0 mm 0.00 in0.0 mm
11:00 PM 32.7°F0.4°C 25.0°F-3.9°C 73% 5.0 mph SSE8.0 kmh SSE 9.0 mph14.5 kmh 30.25 in1024.4 mb 0.00 in0.0 mm 0.00 in0.0 mm 0.00 in0.0 mm
11:05 PM 32.5°F0.3°C 25.2°F-3.8°C 74% 8.0 mph SE12.9 kmh SE 8.0 mph12.9 kmh 30.25 in1024.4 mb 0.00 in0.0 mm 0.00 in0.0 mm 0.00 in0.0 mm
11:10 PM 32.3°F0.2°C 25.0°F-3.9°C 74% 4.0 mph SE6.4 kmh SE 8.0 mph12.9 kmh 30.25 in1024.4 mb 0.00 in0.0 mm 0.00 in0.0 mm 0.00 in0.0 mm
11:15 PM 32.3°F0.2°C 25.0°F-3.9°C 74% 1.0 mph SE1.6 kmh SE 8.0 mph12.9 kmh 30.25 in1024.4 mb 0.00 in0.0 mm 0.00 in0.0 mm 0.00 in0.0 mm
11:20 PM 32.4°F0.2°C 25.1°F-3.8°C 74% 5.0 mph SE8.0 kmh SE 8.0 mph12.9 kmh 30.24 in1024.0 mb 0.00 in0.0 mm 0.00 in0.0 mm 0.00 in0.0 mm
11:25 PM 32.3°F0.2°C 25.0°F-3.9°C 74% 3.0 mph SE4.8 kmh SE 8.0 mph12.9 kmh 30.24 in1024.0 mb 0.00 in0.0 mm 0.00 in0.0 mm 0.00 in0.0 mm
11:30 PM 32.3°F0.2°C 25.0°F-3.9°C 74% 4.0 mph SE6.4 kmh SE 8.0 mph12.9 kmh 30.24 in1024.0 mb 0.00 in0.0 mm 0.00 in0.0 mm 0.00 in0.0 mm
11:35 PM 32.1°F0.1°C 24.8°F-4.0°C 74% 5.0 mph SE8.0 kmh SE 7.0 mph11.3 kmh 30.24 in1024.0 mb 0.00 in0.0 mm 0.00 in0.0 mm 0.00 in0.0 mm
11:40 PM 31.8°F-0.1°C 24.8°F-4.0°C 75% 5.0 mph SE8.0 kmh SE 7.0 mph11.3 kmh 30.24 in1024.0 mb 0.00 in0.0 mm 0.00 in0.0 mm 0.00 in0.0 mm
11:45 PM 31.5°F-0.3°C 24.8°F-4.0°C 76% 4.0 mph SE6.4 kmh SE 7.0 mph11.3 kmh 30.24 in1024.0 mb 0.00 in0.0 mm 0.00 in0.0 mm 0.00 in0.0 mm
11:50 PM 31.3°F-0.4°C 24.6°F-4.1°C 76% 4.0 mph SE6.4 kmh SE 9.0 mph14.5 kmh 30.24 in1024.0 mb 0.00 in0.0 mm 0.00 in0.0 mm 0.00 in0.0 mm
11:55 PM 31.2°F-0.4°C 24.5°F-4.2°C 76% 3.0 mph SE4.8 kmh SE 9.0 mph14.5 kmh 30.24 in1024.0 mb 0.00 in0.0 mm 0.00 in0.0 mm 0.00 in0.0 mm